createdAt,value
2023-03-18T00:02:14.446Z,80.56
2023-03-18T00:04:41.050Z,80.94
2023-03-18T00:07:07.557Z,80.33
2023-03-18T00:09:34.223Z,80.62
2023-03-18T00:12:00.690Z,80.34
2023-03-18T00:14:27.158Z,80.83
2023-03-18T00:16:53.650Z,81.36
2023-03-18T00:19:20.133Z,81.30
2023-03-18T00:21:46.680Z,81.17
2023-03-18T00:24:13.488Z,81.91
2023-03-18T00:26:39.943Z,82.59
2023-03-18T00:29:06.425Z,82.52
2023-03-18T00:31:33.002Z,81.42
2023-03-18T00:33:59.548Z,81.78
2023-03-18T00:36:26.012Z,82.41
2023-03-18T00:38:54.932Z,81.89
2023-03-18T00:41:21.389Z,81.59
2023-03-18T00:43:49.434Z,82.55
2023-03-18T00:46:18.048Z,82.91
2023-03-18T00:48:46.081Z,82.87
2023-03-18T00:51:13.623Z,83.03
2023-03-18T00:53:41.924Z,81.94
2023-03-18T00:56:08.626Z,81.91
2023-03-18T00:58:36.021Z,82.67
2023-03-18T01:01:03.663Z,82.24
2023-03-18T01:03:30.227Z,82.41
2023-03-18T01:05:56.692Z,81.77
2023-03-18T01:08:23.460Z,81.52
2023-03-18T01:10:50.134Z,81.36
2023-03-18T01:13:16.663Z,81.31
2023-03-18T01:15:43.146Z,81.32
2023-03-18T01:18:10.548Z,81.91
2023-03-18T01:20:38.579Z,81.87
2023-03-18T01:23:06.357Z,81.01
2023-03-18T01:25:32.846Z,80.90
2023-03-18T01:27:59.283Z,81.85
2023-03-18T01:30:25.746Z,81.75
2023-03-18T01:32:52.407Z,81.26
2023-03-18T01:35:19.003Z,81.29
2023-03-18T01:37:45.599Z,81.32
2023-03-18T01:40:13.225Z,81.19
2023-03-18T01:42:40.064Z,81.23
2023-03-18T01:45:13.850Z,81.53
2023-03-18T01:47:40.321Z,81.43
2023-03-18T01:50:07.074Z,81.32
2023-03-18T01:52:33.734Z,80.75
2023-03-18T01:55:08.372Z,81.33
2023-03-18T01:57:35.480Z,80.49
2023-03-18T02:00:03.965Z,81.12
2023-03-18T02:02:31.178Z,80.51
2023-03-18T02:05:01.614Z,80.80
2023-03-18T02:07:30.976Z,80.51
2023-03-18T02:09:59.668Z,80.98
2023-03-18T02:12:29.950Z,81.42
2023-03-18T02:14:56.832Z,80.86
2023-03-18T02:17:27.575Z,81.25
2023-03-18T02:20:12.748Z,81.12
2023-03-18T02:22:44.205Z,80.93
2023-03-18T02:25:25.486Z,80.79
2023-03-18T02:27:55.957Z,80.69
2023-03-18T02:30:45.832Z,80.74
2023-03-18T02:33:15.091Z,81.01
2023-03-18T02:35:45.384Z,80.63
2023-03-18T02:38:11.947Z,80.62
2023-03-18T02:40:41.545Z,80.92
2023-03-18T02:43:19.236Z,81.21
2023-03-18T02:45:50.781Z,81.07
2023-03-18T02:48:20.557Z,81.18
2023-03-18T02:50:47.196Z,81.20
2023-03-18T02:53:14.304Z,81.69
2023-03-18T02:55:41.127Z,82.56
2023-03-18T02:58:07.710Z,83.09
2023-03-18T03:00:34.304Z,82.71
2023-03-18T03:03:01.021Z,82.12
2023-03-18T03:05:28.179Z,82.73
2023-03-18T03:07:54.658Z,82.09
2023-03-18T03:10:21.190Z,82.36
2023-03-18T03:12:47.676Z,82.74
2023-03-18T03:15:14.150Z,82.54
2023-03-18T03:17:40.718Z,82.87
2023-03-18T03:20:08.563Z,82.12
2023-03-18T03:22:35.166Z,81.66
2023-03-18T03:25:01.875Z,81.60
2023-03-18T03:27:28.836Z,81.58
2023-03-18T03:29:55.663Z,82.35
2023-03-18T03:32:22.882Z,82.54
2023-03-18T03:34:49.644Z,82.03
2023-03-18T03:37:16.135Z,82.47
2023-03-18T03:39:42.660Z,81.71
2023-03-18T03:42:09.239Z,82.26
2023-03-18T03:44:35.728Z,82.35
2023-03-18T03:47:02.266Z,81.88
2023-03-18T03:49:28.694Z,81.17
2023-03-18T03:51:55.127Z,81.44
2023-03-18T03:54:21.595Z,82.30
2023-03-18T03:56:48.046Z,82.41
2023-03-18T03:59:14.548Z,82.70
2023-03-18T04:01:41.036Z,83.30
2023-03-18T04:04:07.502Z,82.66
2023-03-18T04:06:33.978Z,82.15
2023-03-18T04:09:00.455Z,82.61
2023-03-18T04:11:26.889Z,81.89
2023-03-18T04:13:53.330Z,81.88
2023-03-18T04:16:19.824Z,81.70
2023-03-18T04:18:46.311Z,80.78
2023-03-18T04:21:13.274Z,81.59
2023-03-18T04:23:39.793Z,81.41
2023-03-18T04:26:06.672Z,81.16
2023-03-18T04:28:33.124Z,81.32
2023-03-18T04:30:59.720Z,81.05
2023-03-18T04:33:26.299Z,80.71
2023-03-18T04:35:52.817Z,81.58
2023-03-18T04:38:19.557Z,81.05
2023-03-18T04:40:47.605Z,80.77
2023-03-18T04:43:14.095Z,81.33
2023-03-18T04:45:40.602Z,82.17
2023-03-18T04:48:07.291Z,81.80
2023-03-18T04:50:33.975Z,82.85
2023-03-18T04:53:00.578Z,81.84
2023-03-18T04:55:27.078Z,82.40
2023-03-18T04:57:53.633Z,82.17
2023-03-18T05:00:21.137Z,82.99
2023-03-18T05:02:48.148Z,82.03
2023-03-18T05:05:14.715Z,82.44
2023-03-18T05:07:41.241Z,81.17
2023-03-18T05:10:09.160Z,81.86
2023-03-18T05:12:35.665Z,81.64
2023-03-18T05:15:02.506Z,81.27
2023-03-18T05:17:28.958Z,80.99
2023-03-18T05:19:55.689Z,80.33
2023-03-18T05:22:22.188Z,80.88
2023-03-18T05:24:49.271Z,80.55
2023-03-18T05:27:18.244Z,79.45
2023-03-18T05:29:44.932Z,79.95
2023-03-18T05:32:11.965Z,79.91
2023-03-18T05:34:40.295Z,78.77
2023-03-18T05:37:08.745Z,80.23
2023-03-18T05:39:35.701Z,80.88
2023-03-18T05:42:02.225Z,80.75
2023-03-18T05:44:28.858Z,81.72
2023-03-18T05:46:55.337Z,82.11
2023-03-18T05:49:22.712Z,81.67
2023-03-18T05:51:50.318Z,82.15
2023-03-18T05:54:17.499Z,81.90
2023-03-18T05:56:44.736Z,80.83
2023-03-18T05:59:12.636Z,80.55
2023-03-18T06:01:38.954Z,79.85
2023-03-18T06:04:05.962Z,80.98
2023-03-18T06:06:33.132Z,81.15
2023-03-18T06:08:59.571Z,80.25
2023-03-18T06:11:26.208Z,80.27
2023-03-18T06:13:52.722Z,80.66
2023-03-18T06:16:19.264Z,81.42
2023-03-18T06:18:45.728Z,80.60
2023-03-18T06:21:12.482Z,80.96
2023-03-18T06:23:39.038Z,80.58
2023-03-18T06:26:05.986Z,79.69
2023-03-18T06:28:32.489Z,78.85
2023-03-18T06:30:59.155Z,80.83
2023-03-18T06:33:25.812Z,80.34
2023-03-18T06:35:55.838Z,79.46
2023-03-18T06:38:22.748Z,79.22
2023-03-18T06:40:49.216Z,79.87
2023-03-18T06:43:15.716Z,79.90
2023-03-18T06:45:42.237Z,79.87
2023-03-18T06:48:09.176Z,78.27
2023-03-18T06:50:36.094Z,77.86
2023-03-18T06:53:02.654Z,79.71
2023-03-18T06:55:29.251Z,80.01
2023-03-18T06:57:55.714Z,82.12
2023-03-18T07:00:22.503Z,81.50
2023-03-18T07:02:49.037Z,80.46
2023-03-18T07:05:15.508Z,80.51
2023-03-18T07:07:41.975Z,81.42
2023-03-18T07:10:11.247Z,80.87
2023-03-18T07:12:37.720Z,81.35
2023-03-18T07:15:04.571Z,80.46
2023-03-18T07:17:31.041Z,79.56
2023-03-18T07:19:57.494Z,80.53
2023-03-18T07:22:24.169Z,80.17
2023-03-18T07:24:50.796Z,80.20
2023-03-18T07:27:17.267Z,80.52
2023-03-18T07:29:43.725Z,81.33
2023-03-18T07:32:10.241Z,80.42
2023-03-18T07:34:36.740Z,79.34
2023-03-18T07:37:03.280Z,79.29
2023-03-18T07:39:29.711Z,79.47
2023-03-18T07:41:56.205Z,81.07
2023-03-18T07:44:22.705Z,78.17
2023-03-18T07:46:49.181Z,77.49
2023-03-18T07:49:15.715Z,77.38
2023-03-18T07:51:42.180Z,77.15
2023-03-18T07:54:08.683Z,74.27
2023-03-18T07:56:35.152Z,76.00
2023-03-18T07:59:01.599Z,75.34
2023-03-18T08:01:28.169Z,75.65
2023-03-18T08:03:54.628Z,74.36
2023-03-18T08:06:21.313Z,74.15
2023-03-18T08:08:47.805Z,68.85
2023-03-18T08:11:14.270Z,68.74
2023-03-18T08:13:40.756Z,69.75
2023-03-18T08:16:07.604Z,70.65
2023-03-18T08:18:34.552Z,68.64
2023-03-18T08:21:01.126Z,65.55
2023-03-18T08:23:27.836Z,66.08
2023-03-18T08:25:54.383Z,65.10
2023-03-18T08:28:20.934Z,64.11
2023-03-18T08:30:47.431Z,63.68
2023-03-18T08:33:14.281Z,61.86
2023-03-18T08:35:41.082Z,61.77
2023-03-18T08:38:07.590Z,61.80
2023-03-18T08:40:34.066Z,59.75
2023-03-18T08:43:00.607Z,56.88
2023-03-18T08:45:27.087Z,59.27
2023-03-18T08:47:53.561Z,58.15
2023-03-18T08:50:20.101Z,54.86
2023-03-18T08:52:46.610Z,54.35
2023-03-18T08:55:13.149Z,55.17
2023-03-18T08:57:39.635Z,57.01
2023-03-18T09:00:06.784Z,54.77
2023-03-18T09:02:33.325Z,52.57
2023-03-18T09:04:59.767Z,51.42
2023-03-18T09:07:26.270Z,52.71
2023-03-18T09:09:52.751Z,52.37
2023-03-18T09:12:19.207Z,53.57
2023-03-18T09:14:45.684Z,53.73
2023-03-18T09:17:12.189Z,51.99
2023-03-18T09:19:38.667Z,52.16
2023-03-18T09:22:05.612Z,50.40
2023-03-18T09:24:32.076Z,49.29
2023-03-18T09:26:58.568Z,49.83
2023-03-18T09:29:25.290Z,47.56
2023-03-18T09:31:51.790Z,49.34
2023-03-18T09:34:18.292Z,48.18
2023-03-18T09:36:44.750Z,47.46
2023-03-18T09:39:11.219Z,48.69
2023-03-18T09:41:50.881Z,50.79
2023-03-18T09:44:17.308Z,47.68
2023-03-18T09:46:55.997Z,45.44
2023-03-18T09:50:05.770Z,44.43
2023-03-18T09:52:59.505Z,43.85
2023-03-18T09:55:41.344Z,44.95
2023-03-18T09:58:21.564Z,43.00
2023-03-18T10:00:50.160Z,45.92
2023-03-18T10:03:30.762Z,45.69
2023-03-18T10:06:05.138Z,43.21
2023-03-18T10:08:42.887Z,44.34
2023-03-18T10:11:20.749Z,39.39
2023-03-18T10:14:15.301Z,40.99
2023-03-18T10:17:03.509Z,38.12
2023-03-18T10:19:30.810Z,40.21
2023-03-18T10:22:23.849Z,39.23
2023-03-18T10:25:04.601Z,40.15
2023-03-18T10:27:48.869Z,41.58
2023-03-18T10:30:37.464Z,39.90
2023-03-18T10:33:17.764Z,42.11
2023-03-18T10:35:48.628Z,44.31
2023-03-18T10:38:43.161Z,44.09
2023-03-18T10:41:31.416Z,44.48
2023-03-18T10:44:01.993Z,43.78
2023-03-18T10:46:29.165Z,44.69
2023-03-18T10:49:04.685Z,44.45
2023-03-18T10:51:34.957Z,44.50
2023-03-18T10:54:10.445Z,44.87
2023-03-18T10:56:37.304Z,43.23
2023-03-18T10:59:18.554Z,43.88
2023-03-18T11:01:48.425Z,45.05
2023-03-18T11:04:20.352Z,43.46
2023-03-18T11:06:52.799Z,43.78
2023-03-18T11:09:32.054Z,43.16
2023-03-18T11:12:06.536Z,44.45
2023-03-18T11:14:35.957Z,45.93
2023-03-18T11:17:19.290Z,46.44
2023-03-18T11:19:48.300Z,44.57
2023-03-18T11:22:27.645Z,44.62
2023-03-18T11:25:04.088Z,45.08
2023-03-18T11:27:38.913Z,43.35
2023-03-18T11:30:40.769Z,45.19
2023-03-18T11:33:10.312Z,45.23
2023-03-18T11:35:43.293Z,43.88
2023-03-18T11:38:19.840Z,43.82
2023-03-18T11:40:46.529Z,42.21
2023-03-18T11:43:22.149Z,42.48
2023-03-18T11:45:54.630Z,40.18
2023-03-18T11:48:29.956Z,38.84
2023-03-18T11:51:11.434Z,39.74
2023-03-18T11:53:52.794Z,39.75
2023-03-18T11:56:31.765Z,38.95
2023-03-18T11:59:21.197Z,38.71
2023-03-18T12:01:52.966Z,40.63
2023-03-18T12:04:34.645Z,40.87
2023-03-18T12:07:22.612Z,41.52
2023-03-18T12:10:19.366Z,42.25
2023-03-18T12:12:52.494Z,42.40
2023-03-18T12:15:40.643Z,41.72
2023-03-18T12:18:23.304Z,41.46
2023-03-18T12:20:55.160Z,41.56
2023-03-18T12:23:47.594Z,41.38
2023-03-18T12:26:23.683Z,40.92
2023-03-18T12:29:26.530Z,37.70
2023-03-18T12:32:05.223Z,37.69
2023-03-18T12:34:40.630Z,38.56
2023-03-18T12:37:27.991Z,38.18
2023-03-18T12:40:00.400Z,38.47
2023-03-18T12:42:48.613Z,39.33
2023-03-18T12:45:24.913Z,39.79
2023-03-18T12:47:56.514Z,39.97
2023-03-18T12:50:38.130Z,39.51
2023-03-18T12:53:21.933Z,38.33
2023-03-18T12:55:54.136Z,37.54
2023-03-18T12:58:27.521Z,37.50
2023-03-18T13:01:08.411Z,36.58
2023-03-18T13:03:38.582Z,36.11
2023-03-18T13:06:08.433Z,36.07
2023-03-18T13:08:49.888Z,35.87
2023-03-18T13:11:35.042Z,35.16
2023-03-18T13:14:13.388Z,35.52
2023-03-18T13:16:40.782Z,35.61
2023-03-18T13:19:08.981Z,34.55
2023-03-18T13:21:43.004Z,34.49
2023-03-18T13:24:37.506Z,33.94
2023-03-18T13:27:11.699Z,34.36
2023-03-18T13:30:02.469Z,34.59
2023-03-18T13:33:10.306Z,34.63
2023-03-18T13:35:55.435Z,34.63
2023-03-18T13:38:52.402Z,34.08
2023-03-18T13:41:57.576Z,34.83
2023-03-18T13:44:32.080Z,33.97
2023-03-18T13:47:04.945Z,34.97
2023-03-18T13:49:33.077Z,34.52
2023-03-18T13:52:01.850Z,34.83
2023-03-18T13:54:34.705Z,34.35
2023-03-18T13:57:32.336Z,33.34
2023-03-18T14:00:29.850Z,33.83
2023-03-18T14:03:13.118Z,33.06
2023-03-18T14:05:41.391Z,34.42
2023-03-18T14:08:35.805Z,33.16
2023-03-18T14:11:17.637Z,33.67
2023-03-18T14:13:45.058Z,33.77
2023-03-18T14:16:16.675Z,33.65
2023-03-18T14:18:43.232Z,33.45
2023-03-18T14:21:24.805Z,32.66
2023-03-18T14:24:22.291Z,33.19
2023-03-18T14:27:09.710Z,33.68
2023-03-18T14:29:44.978Z,32.95
2023-03-18T14:33:16.016Z,32.78
2023-03-18T14:35:53.856Z,32.43
2023-03-18T14:38:45.976Z,33.55
2023-03-18T14:41:21.815Z,33.51
2023-03-18T14:44:07.056Z,33.37
2023-03-18T14:46:39.096Z,33.58
2023-03-18T14:49:28.241Z,33.68
2023-03-18T14:51:55.432Z,34.17
2023-03-18T14:54:24.999Z,34.47
2023-03-18T14:56:55.575Z,34.75
2023-03-18T14:59:25.514Z,35.05
2023-03-18T15:01:52.252Z,33.62
2023-03-18T15:04:22.987Z,33.94
2023-03-18T15:06:51.512Z,35.03
2023-03-18T15:09:23.001Z,34.35
2023-03-18T15:11:49.581Z,33.94
2023-03-18T15:14:28.509Z,34.45
2023-03-18T15:17:04.663Z,34.85
2023-03-18T15:19:32.104Z,35.55
2023-03-18T15:22:03.061Z,35.62
2023-03-18T15:24:29.869Z,35.71
2023-03-18T15:26:57.562Z,35.81
2023-03-18T15:29:37.284Z,35.08
2023-03-18T15:32:24.513Z,35.12
2023-03-18T15:34:53.816Z,35.95
2023-03-18T15:37:34.833Z,36.25
2023-03-18T15:40:28.763Z,35.20
2023-03-18T15:43:04.956Z,36.40
2023-03-18T15:45:32.300Z,36.68
2023-03-18T15:48:05.887Z,36.40
2023-03-18T15:50:32.441Z,37.55
2023-03-18T15:53:43.385Z,37.45
2023-03-18T15:56:25.789Z,37.50
2023-03-18T15:59:04.180Z,37.69
2023-03-18T16:01:30.986Z,38.42
2023-03-18T16:03:57.751Z,38.13
2023-03-18T16:06:24.243Z,38.28
2023-03-18T16:08:50.673Z,38.96
2023-03-18T16:11:17.330Z,39.19
2023-03-18T16:13:44.499Z,38.87
2023-03-18T16:16:21.268Z,39.50
2023-03-18T16:18:48.417Z,39.74
2023-03-18T16:21:14.884Z,39.85
2023-03-18T16:23:41.980Z,40.49
2023-03-18T16:26:14.882Z,40.84
2023-03-18T16:28:43.926Z,41.24
2023-03-18T16:31:12.466Z,40.82
2023-03-18T16:33:38.995Z,42.37
2023-03-18T16:36:06.296Z,42.84
2023-03-18T16:38:33.222Z,43.59
2023-03-18T16:41:00.253Z,42.74
2023-03-18T16:43:28.919Z,43.84
2023-03-18T16:45:59.991Z,42.86
2023-03-18T16:48:27.091Z,43.74
2023-03-18T16:50:53.707Z,43.61
2023-03-18T16:53:28.857Z,42.71
2023-03-18T16:56:01.806Z,42.61
2023-03-18T16:58:35.639Z,42.99
2023-03-18T17:01:02.497Z,42.55
2023-03-18T17:03:29.000Z,43.52
2023-03-18T17:05:55.623Z,43.46
2023-03-18T17:08:23.650Z,43.54
2023-03-18T17:10:55.385Z,43.90
2023-03-18T17:13:27.802Z,43.21
2023-03-18T17:15:54.704Z,44.64
2023-03-18T17:18:23.500Z,45.03
2023-03-18T17:20:50.862Z,44.96
2023-03-18T17:23:20.422Z,45.75
2023-03-18T17:25:53.035Z,46.04
2023-03-18T17:28:42.252Z,45.34
2023-03-18T17:31:10.838Z,45.37
2023-03-18T17:33:37.724Z,46.79
2023-03-18T17:36:05.767Z,46.30
2023-03-18T17:38:32.922Z,46.10
2023-03-18T17:41:00.700Z,47.79
2023-03-18T17:43:33.029Z,47.11
2023-03-18T17:46:00.973Z,46.40
2023-03-18T17:48:38.610Z,46.69
2023-03-18T17:51:06.820Z,46.63
2023-03-18T17:53:45.143Z,47.34
2023-03-18T17:56:14.426Z,47.11
2023-03-18T17:58:43.876Z,47.55
2023-03-18T18:01:16.585Z,48.57
2023-03-18T18:03:43.508Z,48.73
2023-03-18T18:06:17.235Z,47.94
2023-03-18T18:08:43.682Z,50.26
2023-03-18T18:11:23.178Z,48.34
2023-03-18T18:13:51.792Z,48.50
2023-03-18T18:16:18.834Z,47.45
2023-03-18T18:18:48.233Z,48.29
2023-03-18T18:21:19.226Z,47.46
2023-03-18T18:23:46.178Z,46.16
2023-03-18T18:26:15.927Z,47.60
2023-03-18T18:28:52.061Z,47.31
2023-03-18T18:31:20.462Z,46.98
2023-03-18T18:33:48.905Z,47.15
2023-03-18T18:36:16.001Z,47.59
2023-03-18T18:38:42.805Z,47.97
2023-03-18T18:41:09.627Z,48.62
2023-03-18T18:43:36.181Z,49.81
2023-03-18T18:46:02.679Z,49.54
2023-03-18T18:48:36.957Z,48.93
2023-03-18T18:51:04.147Z,49.58
2023-03-18T18:53:33.068Z,49.48
2023-03-18T18:56:06.366Z,50.46
2023-03-18T18:58:33.158Z,50.66
2023-03-18T19:01:00.025Z,50.08
2023-03-18T19:03:30.506Z,50.69
2023-03-18T19:05:57.656Z,50.94
2023-03-18T19:08:36.219Z,50.91
2023-03-18T19:11:05.398Z,51.10
2023-03-18T19:13:34.152Z,50.86
2023-03-18T19:16:07.558Z,51.55
2023-03-18T19:18:41.360Z,51.43
2023-03-18T19:21:07.841Z,51.56
2023-03-18T19:23:35.745Z,51.64
2023-03-18T19:26:04.323Z,52.10
2023-03-18T19:28:42.295Z,51.85
2023-03-18T19:31:16.646Z,52.61
2023-03-18T19:33:44.018Z,52.75
2023-03-18T19:36:23.351Z,52.78
2023-03-18T19:38:50.515Z,53.43
2023-03-18T19:41:17.147Z,51.08
2023-03-18T19:43:43.652Z,50.69
2023-03-18T19:46:18.973Z,50.96
2023-03-18T19:48:46.022Z,51.91
2023-03-18T19:51:13.345Z,51.23
2023-03-18T19:53:39.821Z,52.46
2023-03-18T19:56:21.307Z,50.43
2023-03-18T19:58:47.877Z,50.05
2023-03-18T20:01:14.504Z,50.85
2023-03-18T20:03:40.981Z,51.17
2023-03-18T20:06:07.487Z,51.14
2023-03-18T20:08:33.954Z,51.24
2023-03-18T20:11:00.420Z,51.08
2023-03-18T20:13:27.019Z,52.17
2023-03-18T20:15:53.479Z,52.60
2023-03-18T20:18:19.966Z,52.00
2023-03-18T20:20:51.190Z,53.27
2023-03-18T20:23:21.990Z,53.67
2023-03-18T20:25:49.429Z,54.79
2023-03-18T20:28:21.886Z,55.38
2023-03-18T20:30:50.155Z,54.44
2023-03-18T20:33:16.789Z,55.54
2023-03-18T20:35:45.235Z,56.79
2023-03-18T20:38:32.603Z,56.81
2023-03-18T20:41:00.260Z,56.97
2023-03-18T20:43:27.557Z,58.21
2023-03-18T20:45:55.581Z,58.42
2023-03-18T20:48:22.578Z,57.58
2023-03-18T20:50:50.150Z,58.61
2023-03-18T20:53:17.831Z,57.66
2023-03-18T20:55:44.689Z,56.82
2023-03-18T20:58:22.918Z,58.50
2023-03-18T21:00:49.815Z,57.95
2023-03-18T21:03:30.745Z,58.11
2023-03-18T21:05:59.140Z,55.99
2023-03-18T21:08:27.158Z,55.57
2023-03-18T21:10:54.697Z,57.21
2023-03-18T21:13:23.791Z,57.57
2023-03-18T21:15:50.263Z,57.15
2023-03-18T21:18:16.709Z,58.47
2023-03-18T21:20:43.713Z,58.82
2023-03-18T21:23:25.921Z,60.09
2023-03-18T21:25:53.051Z,59.97
2023-03-18T21:28:21.152Z,60.43
2023-03-18T21:30:52.869Z,60.22
2023-03-18T21:33:25.453Z,60.08
2023-03-18T21:35:52.237Z,60.15
2023-03-18T21:38:18.943Z,58.27
2023-03-18T21:40:45.410Z,58.67
2023-03-18T21:43:33.003Z,58.31
2023-03-18T21:46:00.683Z,59.03
2023-03-18T21:48:27.158Z,58.88
2023-03-18T21:50:53.901Z,60.56
2023-03-18T21:53:22.495Z,61.07
2023-03-18T21:55:49.845Z,61.46
2023-03-18T21:58:22.669Z,61.42
2023-03-18T22:00:55.000Z,61.99
2023-03-18T22:03:23.678Z,63.39
2023-03-18T22:05:51.153Z,63.02
2023-03-18T22:08:21.759Z,63.30
2023-03-18T22:10:50.326Z,63.55
2023-03-18T22:13:16.722Z,63.96
2023-03-18T22:15:43.636Z,64.86
2023-03-18T22:18:10.206Z,64.78
2023-03-18T22:20:38.336Z,64.97
2023-03-18T22:23:25.009Z,64.63
2023-03-18T22:25:53.850Z,64.12
2023-03-18T22:28:21.312Z,64.63
2023-03-18T22:30:50.241Z,64.80
2023-03-18T22:33:24.399Z,64.84
2023-03-18T22:35:50.961Z,65.09
2023-03-18T22:38:19.590Z,65.14
2023-03-18T22:40:47.417Z,65.23
2023-03-18T22:43:32.368Z,65.35
2023-03-18T22:46:00.572Z,65.74
2023-03-18T22:48:27.914Z,66.00
2023-03-18T22:50:55.778Z,66.39
2023-03-18T22:53:28.973Z,67.02
2023-03-18T22:55:56.384Z,66.94
2023-03-18T22:58:25.865Z,67.44
2023-03-18T23:00:53.235Z,67.34
2023-03-18T23:03:23.908Z,68.00
2023-03-18T23:05:52.524Z,68.34
2023-03-18T23:08:20.696Z,68.62
2023-03-18T23:10:48.701Z,68.03
2023-03-18T23:13:36.597Z,68.98
2023-03-18T23:16:08.584Z,68.65
2023-03-18T23:18:35.113Z,69.11
2023-03-18T23:21:01.806Z,68.53
2023-03-18T23:23:28.372Z,69.11
2023-03-18T23:25:54.812Z,69.16
2023-03-18T23:28:21.267Z,69.10
2023-03-18T23:30:50.068Z,69.78
2023-03-18T23:33:16.721Z,69.78
2023-03-18T23:35:44.314Z,69.98
2023-03-18T23:38:11.246Z,69.84
2023-03-18T23:40:38.370Z,70.96
2023-03-18T23:43:05.122Z,71.62
2023-03-18T23:45:31.900Z,71.76
2023-03-18T23:47:58.650Z,71.76
2023-03-18T23:50:25.175Z,72.41
2023-03-18T23:52:51.663Z,72.75
2023-03-18T23:55:45.401Z,72.61
2023-03-18T23:58:04.871Z,72.51
